Time;durP1;ratioP1;P1;durP2;ratioP2;P2;SDS_P1;SDS_P2;PMS_P1;PMS_P2;Temp;Humidity;BMP_temperature;BMP_pressure;BME280_temperature;BME280_humidity;BME280_pressure;Samples;Min_cycle;Max_cycle;Signal;HPM_P1;HPM_P2
2023/04/15 00:00:32;;;;;;;21.15;11.15;;;7.80;99.90;;;;;;5033014;28;20022;-73
2023/04/15 00:02:58;;;;;;;21.15;11.13;;;7.80;99.90;;;;;;5033312;28;20022;-74
2023/04/15 00:05:23;;;;;;;16.65;10.55;;;7.80;99.90;;;;;;5033171;28;20024;-73
2023/04/15 00:07:50;;;;;;;20.45;10.63;;;7.80;99.90;;;;;;5033445;28;20060;-74
2023/04/15 00:10:15;;;;;;;18.77;10.63;;;7.80;99.90;;;;;;5031180;28;20050;-74
2023/04/15 00:12:41;;;;;;;21.85;11.77;;;7.80;99.90;;;;;;5031462;28;20054;-73
2023/04/15 00:15:08;;;;;;;20.30;11.27;;;7.80;99.90;;;;;;5033488;28;21312;-74
2023/04/15 00:17:34;;;;;;;17.98;10.73;;;7.80;99.90;;;;;;5033085;28;20014;-75
2023/04/15 00:20:00;;;;;;;21.35;11.70;;;7.80;99.90;;;;;;5033105;28;20029;-74
2023/04/15 00:22:26;;;;;;;18.63;11.30;;;7.80;99.90;;;;;;5032446;28;21006;-73
2023/04/15 00:24:52;;;;;;;21.25;11.25;;;7.90;99.90;;;;;;5031855;28;20053;-73
2023/04/15 00:27:18;;;;;;;20.77;11.77;;;7.90;99.90;;;;;;5035166;28;20030;-75
2023/04/15 00:29:44;;;;;;;21.58;11.15;;;7.90;99.90;;;;;;5034178;28;20033;-74
2023/04/15 00:32:09;;;;;;;21.25;12.25;;;7.90;99.90;;;;;;5034689;28;20114;-75
2023/04/15 00:34:35;;;;;;;24.70;12.77;;;7.90;99.90;;;;;;5034077;28;20026;-75
2023/04/15 00:37:02;;;;;;;21.48;12.73;;;7.80;99.90;;;;;;5034460;28;20022;-75
2023/04/15 00:39:27;;;;;;;23.77;12.77;;;7.80;99.90;;;;;;5032977;28;20044;-74
2023/04/15 00:41:53;;;;;;;23.40;13.23;;;7.80;99.90;;;;;;5031317;28;20050;-74
2023/04/15 00:44:19;;;;;;;24.58;12.45;;;7.90;99.90;;;;;;5030381;28;20017;-74
2023/04/15 00:46:45;;;;;;;22.63;12.55;;;7.80;99.90;;;;;;5030937;28;20098;-75
2023/04/15 00:49:12;;;;;;;25.45;13.25;;;7.80;99.90;;;;;;5031814;28;20037;-74
2023/04/15 00:51:37;;;;;;;21.95;12.57;;;7.90;99.90;;;;;;5031487;28;20028;-74
2023/04/15 00:54:04;;;;;;;25.08;13.20;;;7.80;99.90;;;;;;5033377;28;20459;-74
2023/04/15 00:56:30;;;;;;;22.15;12.75;;;7.80;99.90;;;;;;5031041;28;20136;-73
2023/04/15 00:58:57;;;;;;;21.05;12.90;;;7.80;99.90;;;;;;5031953;28;20037;-73
2023/04/15 01:01:24;;;;;;;18.08;11.05;;;7.80;99.90;;;;;;5030290;28;20030;-74
2023/04/15 01:03:51;;;;;;;20.42;12.27;;;7.80;99.90;;;;;;5030821;28;20017;-74
2023/04/15 01:06:17;;;;;;;20.85;11.82;;;7.80;99.90;;;;;;5030641;28;20483;-74
2023/04/15 01:08:44;;;;;;;22.58;12.68;;;7.80;99.90;;;;;;5031469;28;20479;-75
2023/04/15 01:11:11;;;;;;;24.92;13.20;;;7.80;99.90;;;;;;5031766;28;20021;-73
2023/04/15 01:13:37;;;;;;;23.00;13.38;;;7.80;99.90;;;;;;5029153;28;20037;-75
2023/04/15 01:16:03;;;;;;;23.70;13.57;;;7.80;99.90;;;;;;5031508;28;20038;-74
2023/04/15 01:18:30;;;;;;;23.08;12.90;;;7.70;99.90;;;;;;5031561;28;20065;-76
2023/04/15 01:20:56;;;;;;;21.98;12.48;;;7.70;99.90;;;;;;5030900;28;20093;-74
2023/04/15 01:23:22;;;;;;;23.63;13.00;;;7.70;99.90;;;;;;5030315;28;20048;-74
2023/04/15 01:25:49;;;;;;;21.35;12.20;;;7.60;99.90;;;;;;5030678;28;20030;-75
2023/04/15 01:28:15;;;;;;;26.42;14.02;;;7.70;99.90;;;;;;5032047;28;20072;-74
2023/04/15 01:30:41;;;;;;;21.42;12.73;;;7.60;99.90;;;;;;5030922;28;20523;-74
2023/04/15 01:33:10;;;;;;;23.95;12.93;;;7.60;99.90;;;;;;5030678;28;20033;-74
2023/04/15 01:35:36;;;;;;;22.40;12.25;;;7.60;99.90;;;;;;5030176;28;20042;-74
2023/04/15 01:38:06;;;;;;;24.63;12.85;;;7.50;99.90;;;;;;5030760;28;20026;-73
2023/04/15 01:40:33;;;;;;;22.05;12.75;;;7.50;99.90;;;;;;5031437;28;20426;-74
2023/04/15 01:42:59;;;;;;;21.73;12.43;;;7.50;99.90;;;;;;5030078;28;20128;-74
2023/04/15 01:45:25;;;;;;;24.67;13.32;;;7.40;99.90;;;;;;5029004;28;20053;-73
2023/04/15 01:47:50;;;;;;;23.25;12.80;;;7.40;99.90;;;;;;5029672;28;20731;-74
2023/04/15 01:50:16;;;;;;;22.73;12.73;;;7.40;99.90;;;;;;5030856;28;20100;-74
2023/04/15 01:52:42;;;;;;;23.15;13.00;;;7.40;99.90;;;;;;5031217;28;20017;-74
2023/04/15 01:55:08;;;;;;;24.60;12.88;;;7.40;99.90;;;;;;5029673;28;20034;-75
2023/04/15 01:57:34;;;;;;;23.67;12.85;;;7.30;99.90;;;;;;5029821;28;20018;-73
2023/04/15 01:59:59;;;;;;;22.20;13.18;;;7.30;99.90;;;;;;5030673;28;20025;-73
2023/04/15 02:02:25;;;;;;;22.83;13.15;;;7.30;99.90;;;;;;5031062;28;20562;-72
2023/04/15 02:04:51;;;;;;;23.42;13.50;;;7.30;99.90;;;;;;5031165;28;20030;-73
2023/04/15 02:07:17;;;;;;;25.85;14.27;;;7.30;99.90;;;;;;5030870;28;20025;-74
2023/04/15 02:09:42;;;;;;;27.55;14.90;;;7.30;99.90;;;;;;5030709;28;20077;-74
2023/04/15 02:12:08;;;;;;;26.73;15.52;;;7.20;99.90;;;;;;5032688;28;20431;-75
2023/04/15 02:14:34;;;;;;;24.90;14.80;;;7.20;99.90;;;;;;5029868;28;20032;-74
2023/04/15 02:17:06;;;;;;;26.75;15.43;;;7.20;99.90;;;;;;5031821;28;20096;-74
2023/04/15 02:19:35;;;;;;;28.65;15.77;;;7.20;99.90;;;;;;5032137;28;20075;-74
2023/04/15 02:22:01;;;;;;;29.38;16.88;;;7.20;99.90;;;;;;5031720;28;20037;-74
2023/04/15 02:24:30;;;;;;;27.00;15.57;;;7.20;99.90;;;;;;5030122;28;20026;-73
2023/04/15 02:26:56;;;;;;;29.88;16.73;;;7.20;99.90;;;;;;5030265;28;20091;-74
2023/04/15 02:29:22;;;;;;;29.60;16.75;;;7.20;99.90;;;;;;5030840;28;20041;-74
2023/04/15 02:31:48;;;;;;;31.23;16.98;;;7.20;99.90;;;;;;5031873;28;20021;-74
2023/04/15 02:34:14;;;;;;;32.22;18.25;;;7.20;99.90;;;;;;5031812;28;20075;-74
2023/04/15 02:36:39;;;;;;;32.25;18.52;;;7.20;99.90;;;;;;5031430;28;20096;-74
2023/04/15 02:39:06;;;;;;;31.13;17.75;;;7.20;99.90;;;;;;5031189;28;20025;-76
2023/04/15 02:41:32;;;;;;;33.58;18.42;;;7.20;99.90;;;;;;5031834;28;20022;-74
2023/04/15 02:44:00;;;;;;;30.73;17.77;;;7.20;99.90;;;;;;5031618;28;20057;-74
2023/04/15 02:46:26;;;;;;;34.03;18.55;;;7.20;99.90;;;;;;5030285;28;20116;-75
2023/04/15 02:48:52;;;;;;;31.50;17.95;;;7.20;99.90;;;;;;5031000;28;20475;-75
2023/04/15 02:51:20;;;;;;;30.40;17.45;;;7.20;99.90;;;;;;5031783;28;20028;-74
2023/04/15 02:53:49;;;;;;;30.98;17.08;;;7.20;99.90;;;;;;5029470;28;20375;-76
2023/04/15 02:56:16;;;;;;;29.67;16.27;;;7.20;99.90;;;;;;5029466;28;20097;-73
2023/04/15 02:58:43;;;;;;;29.92;17.17;;;7.20;99.90;;;;;;5030274;28;20116;-75
2023/04/15 03:01:09;;;;;;;26.60;15.98;;;7.30;99.90;;;;;;5031186;28;20057;-74
2023/04/15 03:03:35;;;;;;;30.73;17.15;;;7.20;99.90;;;;;;5031607;28;20029;-75
2023/04/15 03:06:01;;;;;;;29.95;17.35;;;7.20;99.90;;;;;;5031727;28;20025;-75
2023/04/15 03:08:26;;;;;;;31.02;16.38;;;7.30;99.90;;;;;;5031065;28;20018;-75
2023/04/15 03:10:53;;;;;;;31.58;17.75;;;7.30;99.90;;;;;;5031510;28;20022;-74
2023/04/15 03:13:19;;;;;;;35.42;17.45;;;7.30;99.90;;;;;;5031564;28;20046;-75
2023/04/15 03:15:48;;;;;;;27.77;16.10;;;7.30;99.90;;;;;;5030480;28;20049;-75
2023/04/15 03:18:13;;;;;;;27.38;15.88;;;7.30;99.90;;;;;;5031080;28;20077;-75
2023/04/15 03:20:39;;;;;;;29.30;15.95;;;7.30;99.90;;;;;;5030152;28;20056;-74
2023/04/15 03:23:05;;;;;;;28.92;15.75;;;7.30;99.90;;;;;;5031476;28;20018;-74
2023/04/15 03:25:30;;;;;;;29.02;16.00;;;7.30;99.90;;;;;;5030107;28;20034;-75
2023/04/15 03:27:57;;;;;;;26.77;15.75;;;7.30;99.90;;;;;;5034321;28;20092;-74
2023/04/15 03:30:22;;;;;;;30.00;15.90;;;7.30;99.90;;;;;;5033864;28;20479;-75
2023/04/15 03:32:48;;;;;;;25.85;15.10;;;7.20;99.90;;;;;;5035032;28;20052;-75
2023/04/15 03:35:13;;;;;;;27.98;15.85;;;7.20;99.90;;;;;;5033585;28;20045;-74
2023/04/15 03:37:39;;;;;;;25.73;15.73;;;7.20;99.90;;;;;;5033594;28;20025;-73
2023/04/15 03:40:06;;;;;;;27.52;15.40;;;7.20;99.90;;;;;;5035201;28;20482;-76
2023/04/15 03:42:31;;;;;;;27.35;15.77;;;7.20;99.90;;;;;;5035452;28;20849;-75
2023/04/15 03:44:57;;;;;;;30.67;17.15;;;7.30;99.90;;;;;;5033299;28;20065;-74
2023/04/15 03:47:22;;;;;;;32.50;16.90;;;7.20;99.90;;;;;;5035106;28;20017;-75
2023/04/15 03:49:48;;;;;;;30.00;16.98;;;7.30;99.90;;;;;;5034646;28;20037;-74
2023/04/15 03:52:14;;;;;;;32.65;16.92;;;7.30;99.90;;;;;;5033347;28;20017;-74
2023/04/15 03:54:39;;;;;;;30.13;17.25;;;7.30;99.90;;;;;;5033466;28;20078;-75
2023/04/15 03:57:05;;;;;;;31.98;17.70;;;7.30;99.90;;;;;;5034121;28;20038;-73
2023/04/15 03:59:31;;;;;;;35.80;18.42;;;7.30;99.90;;;;;;5032495;28;20025;-71
2023/04/15 04:01:56;;;;;;;33.38;17.73;;;7.40;99.90;;;;;;5020512;28;20048;-72
2023/04/15 04:04:22;;;;;;;37.80;18.55;;;7.30;99.90;;;;;;5029744;28;20113;-74
2023/04/15 04:06:47;;;;;;;33.50;16.98;;;7.40;99.90;;;;;;5034209;28;20036;-73
2023/04/15 04:09:13;;;;;;;35.58;18.70;;;7.40;99.90;;;;;;5031862;28;20057;-72
2023/04/15 04:11:38;;;;;;;36.70;18.48;;;7.30;99.90;;;;;;5032501;28;20056;-73
2023/04/15 04:14:04;;;;;;;37.40;18.55;;;7.30;99.90;;;;;;5032866;28;20074;-72
2023/04/15 04:16:30;;;;;;;36.25;18.98;;;7.40;99.90;;;;;;5031874;28;20038;-72
2023/04/15 04:18:55;;;;;;;38.53;20.45;;;7.40;99.90;;;;;;5034025;28;20030;-72
2023/04/15 04:21:21;;;;;;;34.95;19.25;;;7.40;99.90;;;;;;5034241;28;20030;-72
2023/04/15 04:23:47;;;;;;;41.70;20.90;;;7.30;99.90;;;;;;5034693;28;20017;-73
2023/04/15 04:26:12;;;;;;;38.78;20.05;;;7.30;99.90;;;;;;5034286;28;20026;-72
2023/04/15 04:28:39;;;;;;;38.58;20.33;;;7.40;99.90;;;;;;5034851;28;20021;-73
2023/04/15 04:31:06;;;;;;;38.90;20.02;;;7.30;99.90;;;;;;5031817;28;20032;-73
2023/04/15 04:33:35;;;;;;;41.15;21.13;;;7.40;99.90;;;;;;5033208;28;20049;-73
2023/04/15 04:36:01;;;;;;;41.47;21.08;;;7.40;99.90;;;;;;5033327;28;20045;-73
2023/04/15 04:38:26;;;;;;;42.50;21.48;;;7.40;99.90;;;;;;5031122;28;20061;-74
2023/04/15 04:40:52;;;;;;;44.00;21.67;;;7.40;99.90;;;;;;5034329;28;20057;-74
2023/04/15 04:43:17;;;;;;;46.75;22.30;;;7.40;99.90;;;;;;5032919;28;20080;-72
2023/04/15 04:45:43;;;;;;;43.10;22.33;;;7.40;99.90;;;;;;5034635;28;20033;-73
2023/04/15 04:48:09;;;;;;;44.20;22.38;;;7.40;99.90;;;;;;5034249;28;20036;-73
2023/04/15 04:50:35;;;;;;;46.85;22.95;;;7.40;99.90;;;;;;5033332;28;20030;-73
2023/04/15 04:53:01;;;;;;;48.67;23.75;;;7.40;99.90;;;;;;5034311;28;20018;-73
2023/04/15 04:55:27;;;;;;;47.05;22.85;;;7.40;99.90;;;;;;5034084;28;20128;-72
2023/04/15 04:57:52;;;;;;;41.13;22.20;;;7.40;99.90;;;;;;5033689;28;20098;-71
2023/04/15 05:00:18;;;;;;;43.17;22.80;;;7.40;99.90;;;;;;5034123;28;20071;-74
2023/04/15 05:02:44;;;;;;;47.30;23.75;;;7.50;99.90;;;;;;5029011;28;20022;-73
2023/04/15 05:05:10;;;;;;;46.92;23.05;;;7.40;99.90;;;;;;5031019;28;20022;-72
2023/04/15 05:07:40;;;;;;;48.45;23.83;;;7.50;99.90;;;;;;5032473;28;20035;-73
2023/04/15 05:10:06;;;;;;;42.38;22.65;;;7.50;99.90;;;;;;5031782;28;20045;-71
2023/04/15 05:12:31;;;;;;;46.03;22.95;;;7.50;99.90;;;;;;5033660;28;20025;-71
2023/04/15 05:14:57;;;;;;;46.58;22.80;;;7.50;99.90;;;;;;5033835;28;20022;-71
2023/04/15 05:17:23;;;;;;;45.22;23.58;;;7.50;99.90;;;;;;5031932;28;20026;-72
2023/04/15 05:19:48;;;;;;;44.45;23.92;;;7.50;99.90;;;;;;5030622;28;20052;-72
2023/04/15 05:22:14;;;;;;;44.70;24.00;;;7.50;99.90;;;;;;5033635;28;20076;-73
2023/04/15 05:24:40;;;;;;;48.05;24.35;;;7.50;99.90;;;;;;5030277;28;20022;-72
2023/04/15 05:27:07;;;;;;;43.45;23.15;;;7.50;99.90;;;;;;5032302;28;20038;-74
2023/04/15 05:29:33;;;;;;;43.72;24.05;;;7.50;99.90;;;;;;5033385;28;20051;-72
2023/04/15 05:31:58;;;;;;;48.17;24.48;;;7.60;99.90;;;;;;5031123;28;20064;-72
2023/04/15 05:34:24;;;;;;;44.22;23.85;;;7.60;99.90;;;;;;5032704;28;20033;-73
2023/04/15 05:36:49;;;;;;;42.55;22.33;;;7.60;99.90;;;;;;5032855;28;20033;-71
2023/04/15 05:39:15;;;;;;;48.67;24.23;;;7.70;99.90;;;;;;5031807;28;20041;-72
2023/04/15 05:41:40;;;;;;;48.20;23.17;;;7.70;99.90;;;;;;5033157;28;20021;-72
2023/04/15 05:44:06;;;;;;;46.35;24.00;;;7.70;99.90;;;;;;5032878;28;20030;-70
2023/04/15 05:46:32;;;;;;;47.88;24.17;;;7.70;99.90;;;;;;5033381;28;20079;-71
2023/04/15 05:48:57;;;;;;;48.67;25.08;;;7.80;99.90;;;;;;5031462;28;20068;-72
2023/04/15 05:51:23;;;;;;;48.03;24.20;;;7.80;99.90;;;;;;5032207;28;20465;-70
2023/04/15 05:53:48;;;;;;;49.13;25.98;;;7.80;99.90;;;;;;5032882;28;20033;-70
2023/04/15 05:56:14;;;;;;;48.10;25.27;;;7.80;99.90;;;;;;5032855;28;20038;-69
2023/04/15 05:58:39;;;;;;;47.80;24.63;;;7.80;99.90;;;;;;5031534;28;20026;-69
2023/04/15 06:01:06;;;;;;;49.22;24.98;;;7.70;99.90;;;;;;5032943;28;20033;-70
2023/04/15 06:03:32;;;;;;;45.55;24.67;;;7.70;99.90;;;;;;5032806;28;20467;-70
2023/04/15 06:05:57;;;;;;;46.15;24.05;;;7.80;99.90;;;;;;5032674;28;20037;-70
2023/04/15 06:08:23;;;;;;;47.28;24.48;;;7.80;99.90;;;;;;5032107;28;20018;-70
2023/04/15 06:10:49;;;;;;;50.35;25.48;;;7.80;99.90;;;;;;5032807;28;20386;-69
2023/04/15 06:13:15;;;;;;;46.70;23.92;;;7.80;99.90;;;;;;5031043;28;20017;-69
2023/04/15 06:15:41;;;;;;;49.58;23.92;;;7.80;99.90;;;;;;5030519;28;20042;-70
2023/04/15 06:18:07;;;;;;;50.03;24.60;;;7.80;99.90;;;;;;5032469;28;20023;-70
2023/04/15 06:20:33;;;;;;;46.85;23.67;;;7.80;99.90;;;;;;5032602;28;20026;-70
2023/04/15 06:22:58;;;;;;;49.25;23.27;;;7.80;99.90;;;;;;5028652;28;20754;-70
2023/04/15 06:25:24;;;;;;;47.17;23.95;;;7.80;99.90;;;;;;5030755;28;20109;-69
2023/04/15 06:27:49;;;;;;;47.17;23.85;;;7.90;99.90;;;;;;5030245;28;20026;-71
2023/04/15 06:30:15;;;;;;;48.70;24.85;;;7.90;99.90;;;;;;5032376;28;20026;-70
2023/04/15 06:32:41;;;;;;;50.00;25.00;;;7.90;99.90;;;;;;5032181;28;20029;-70
2023/04/15 06:35:07;;;;;;;49.63;24.55;;;7.90;99.90;;;;;;5029991;28;20068;-70
2023/04/15 06:37:32;;;;;;;49.25;25.35;;;7.90;99.90;;;;;;5030854;28;20018;-70
2023/04/15 06:39:58;;;;;;;49.38;25.27;;;8.00;99.90;;;;;;5031854;28;20037;-69
2023/04/15 06:42:23;;;;;;;44.65;23.45;;;8.00;99.90;;;;;;5032106;28;20037;-70
2023/04/15 06:44:49;;;;;;;47.53;24.92;;;8.00;99.90;;;;;;5031669;28;20040;-70
2023/04/15 06:47:14;;;;;;;44.90;24.10;;;8.00;99.90;;;;;;5030945;28;20064;-71
2023/04/15 06:49:41;;;;;;;49.13;24.35;;;8.00;99.90;;;;;;5031451;28;20021;-71
2023/04/15 06:52:07;;;;;;;44.67;24.25;;;8.00;99.90;;;;;;5032470;28;20087;-70
2023/04/15 06:54:33;;;;;;;46.53;24.25;;;8.00;99.90;;;;;;5030841;28;20034;-71
2023/04/15 06:56:58;;;;;;;48.05;25.13;;;8.00;99.90;;;;;;5031986;28;20405;-71
2023/04/15 06:59:24;;;;;;;46.92;24.58;;;8.00;99.90;;;;;;5031564;28;20478;-72
2023/04/15 07:01:50;;;;;;;47.25;25.65;;;8.00;99.90;;;;;;5035651;28;21492;-71
2023/04/15 07:04:15;;;;;;;48.28;25.08;;;8.10;99.90;;;;;;5035886;28;20025;-72
2023/04/15 07:06:41;;;;;;;45.22;25.40;;;8.10;99.90;;;;;;5035105;28;20398;-71
2023/04/15 07:09:07;;;;;;;45.40;24.70;;;8.10;99.90;;;;;;5035963;28;20038;-72
2023/04/15 07:11:33;;;;;;;43.55;24.30;;;8.10;99.90;;;;;;5035984;28;20025;-72
2023/04/15 07:13:58;;;;;;;47.60;24.70;;;8.20;99.90;;;;;;5034395;28;20033;-70
2023/04/15 07:16:24;;;;;;;43.03;24.52;;;8.20;99.90;;;;;;5036011;28;20084;-74
2023/04/15 07:18:49;;;;;;;44.60;24.90;;;8.20;99.90;;;;;;5035548;28;20018;-72
2023/04/15 07:21:15;;;;;;;47.65;25.15;;;8.20;99.90;;;;;;5035760;28;20025;-72
2023/04/15 07:23:41;;;;;;;38.28;22.13;;;8.30;99.90;;;;;;5034190;28;20034;-74
2023/04/15 07:26:07;;;;;;;39.20;23.23;;;8.30;99.90;;;;;;5036027;28;20029;-73
2023/04/15 07:28:33;;;;;;;38.13;22.52;;;8.30;99.90;;;;;;5035668;28;20076;-74
2023/04/15 07:30:59;;;;;;;35.30;20.70;;;8.30;99.90;;;;;;5035519;28;20029;-74
2023/04/15 07:33:25;;;;;;;33.75;20.88;;;8.40;99.90;;;;;;5034471;28;20030;-74
2023/04/15 07:35:50;;;;;;;35.53;20.67;;;8.30;99.90;;;;;;5032339;28;20603;-74
2023/04/15 07:38:16;;;;;;;38.85;21.02;;;8.40;99.90;;;;;;5032973;28;20045;-72
2023/04/15 07:40:42;;;;;;;32.55;19.63;;;8.40;99.90;;;;;;5035198;28;20017;-71
2023/04/15 07:43:08;;;;;;;32.72;19.42;;;8.40;99.90;;;;;;5034574;28;20029;-72
2023/04/15 07:45:34;;;;;;;36.55;21.42;;;8.40;99.90;;;;;;5034654;28;20028;-73
2023/04/15 07:48:01;;;;;;;30.95;19.67;;;8.40;99.90;;;;;;5034511;28;20124;-74
2023/04/15 07:50:27;;;;;;;31.83;19.10;;;8.40;99.90;;;;;;5034498;28;20035;-75
2023/04/15 07:52:53;;;;;;;32.05;19.92;;;8.50;99.90;;;;;;5035723;28;20059;-76
2023/04/15 07:55:20;;;;;;;43.60;24.83;;;8.50;99.90;;;;;;5035606;28;20061;-76
2023/04/15 07:57:46;;;;;;;30.27;18.67;;;8.50;99.90;;;;;;5033763;28;20024;-76
2023/04/15 08:00:12;;;;;;;31.60;19.08;;;8.50;99.90;;;;;;5034192;28;20076;-75
2023/04/15 08:02:38;;;;;;;30.65;18.48;;;8.50;99.90;;;;;;5035509;28;20026;-74
2023/04/15 08:05:04;;;;;;;31.50;19.15;;;8.50;99.90;;;;;;5034311;28;20022;-76
2023/04/15 08:07:30;;;;;;;32.75;18.73;;;8.60;99.90;;;;;;5034972;28;20053;-75
2023/04/15 08:09:56;;;;;;;27.80;17.00;;;8.60;99.90;;;;;;5033408;28;20045;-73
2023/04/15 08:12:22;;;;;;;28.88;17.40;;;8.60;99.90;;;;;;5033760;28;20033;-75
2023/04/15 08:14:49;;;;;;;27.85;17.42;;;8.60;99.90;;;;;;5033745;28;20033;-75
2023/04/15 08:17:15;;;;;;;27.77;17.35;;;8.70;99.90;;;;;;5034275;28;20041;-74
2023/04/15 08:19:41;;;;;;;29.23;17.65;;;8.70;99.90;;;;;;5034981;28;20036;-73
2023/04/15 08:22:07;;;;;;;28.42;17.95;;;8.70;99.90;;;;;;5035128;28;20022;-75
2023/04/15 08:24:33;;;;;;;29.00;16.77;;;8.70;99.90;;;;;;5033262;28;20160;-73
2023/04/15 08:27:00;;;;;;;27.58;17.13;;;8.70;99.90;;;;;;5034433;28;20045;-73
2023/04/15 08:29:26;;;;;;;25.08;15.68;;;8.70;99.90;;;;;;5034700;28;20045;-74
2023/04/15 08:31:52;;;;;;;27.98;16.40;;;8.70;99.90;;;;;;5033026;28;20029;-73
2023/04/15 08:34:18;;;;;;;27.98;17.42;;;8.70;99.90;;;;;;5032572;28;20034;-73
2023/04/15 08:36:44;;;;;;;27.80;16.02;;;8.70;99.90;;;;;;5030457;28;20041;-74
2023/04/15 08:39:10;;;;;;;25.48;15.77;;;8.70;99.90;;;;;;5032165;28;20021;-73
2023/04/15 08:41:46;;;;;;;24.40;13.85;;;8.80;99.90;;;;;;5033352;28;20109;-74
2023/04/15 08:44:13;;;;;;;21.52;13.32;;;8.80;99.90;;;;;;5033892;28;20025;-73
2023/04/15 08:46:41;;;;;;;24.75;13.95;;;8.70;99.90;;;;;;5032408;28;20026;-74
2023/04/15 08:49:10;;;;;;;23.65;13.75;;;8.70;99.90;;;;;;5032014;28;20052;-73
2023/04/15 08:51:37;;;;;;;24.08;14.10;;;8.70;99.90;;;;;;5032050;28;20025;-73
2023/04/15 08:54:03;;;;;;;26.33;15.50;;;8.80;99.90;;;;;;5020448;28;20025;-72
2023/04/15 08:56:31;;;;;;;23.67;13.75;;;8.80;99.90;;;;;;5019992;28;20052;-73
2023/04/15 08:58:59;;;;;;;22.95;14.63;;;8.80;99.90;;;;;;5028843;28;20050;-72
2023/04/15 09:01:25;;;;;;;24.20;14.23;;;8.80;99.90;;;;;;5031555;28;20120;-72
2023/04/15 09:03:53;;;;;;;22.98;13.65;;;8.80;99.90;;;;;;5032714;28;20029;-73
2023/04/15 09:06:20;;;;;;;20.80;13.02;;;8.80;99.90;;;;;;5028886;28;20034;-74
2023/04/15 09:08:46;;;;;;;21.83;13.35;;;8.80;99.90;;;;;;5031343;28;20050;-71
2023/04/15 09:11:12;;;;;;;21.83;13.30;;;8.80;99.90;;;;;;5031289;28;20045;-73
2023/04/15 09:13:39;;;;;;;23.00;12.77;;;8.80;99.90;;;;;;5033332;28;20036;-74
2023/04/15 09:16:05;;;;;;;20.60;12.20;;;8.90;99.90;;;;;;5032733;28;20033;-73
2023/04/15 09:18:35;;;;;;;19.85;12.13;;;8.80;99.90;;;;;;5032973;28;20029;-73
2023/04/15 09:21:10;;;;;;;19.02;11.98;;;8.90;99.90;;;;;;5032968;28;20044;-73
2023/04/15 09:23:39;;;;;;;;;;;9.00;99.90;;;;;;5030403;28;20139;-72
2023/04/15 09:26:05;;;;;;;19.25;10.93;;;9.10;99.90;;;;;;5032560;28;19983;-73
2023/04/15 09:28:32;;;;;;;17.38;10.85;;;9.20;99.90;;;;;;5031463;28;20467;-75
2023/04/15 09:30:58;;;;;;;16.10;10.50;;;9.20;99.90;;;;;;5031561;28;20073;-73
2023/04/15 09:33:27;;;;;;;19.55;10.77;;;9.30;99.90;;;;;;5031244;28;20025;-73
2023/04/15 09:36:04;;;;;;;16.20;10.65;;;9.30;99.90;;;;;;5032168;28;20049;-74
2023/04/15 09:38:31;;;;;;;16.48;10.35;;;9.40;99.90;;;;;;5032192;28;20045;-74
2023/04/15 09:40:57;;;;;;;18.33;10.77;;;9.50;99.90;;;;;;5030797;28;20041;-74
2023/04/15 09:43:39;;;;;;;16.15;10.95;;;9.50;99.90;;;;;;5030804;28;20104;-74
2023/04/15 09:46:12;;;;;;;16.27;10.52;;;9.50;99.90;;;;;;5078935;28;20391;-73
2023/04/15 09:48:37;;;;;;;16.90;11.60;;;9.60;99.90;;;;;;5077674;28;20033;-74
2023/04/15 09:51:03;;;;;;;16.63;11.50;;;9.50;99.90;;;;;;5077133;28;20090;-76
2023/04/15 09:53:28;;;;;;;17.48;11.70;;;9.50;99.90;;;;;;5078709;28;20024;-75
2023/04/15 09:56:01;;;;;;;17.98;11.90;;;9.60;99.90;;;;;;5078587;28;20029;-73
2023/04/15 09:58:37;;;;;;;21.38;13.40;;;9.70;99.90;;;;;;5077133;28;20028;-74
2023/04/15 10:01:04;;;;;;;19.33;12.63;;;9.60;99.90;;;;;;5077055;28;20028;-73
2023/04/15 10:03:34;;;;;;;19.60;12.57;;;9.70;99.90;;;;;;5077996;28;20040;-73
2023/04/15 10:06:00;;;;;;;25.98;15.63;;;9.70;99.90;;;;;;5078090;28;20060;-74
2023/04/15 10:08:28;;;;;;;22.83;14.30;;;9.70;99.90;;;;;;5077790;28;20043;-75
2023/04/15 10:10:54;;;;;;;20.58;13.25;;;9.60;99.90;;;;;;5076859;28;20029;-73
2023/04/15 10:13:22;;;;;;;24.35;13.85;;;9.60;99.90;;;;;;5077722;28;20023;-75
2023/04/15 10:16:04;;;;;;;23.85;14.15;;;9.50;99.90;;;;;;5077643;28;20017;-75
2023/04/15 10:18:33;;;;;;;20.15;13.13;;;9.50;99.90;;;;;;5076845;28;20056;-76
2023/04/15 10:21:00;;;;;;;26.45;15.10;;;9.40;99.90;;;;;;5077025;28;20036;-72
2023/04/15 10:23:26;;;;;;;23.92;14.38;;;9.50;99.90;;;;;;5078073;28;20029;-73
2023/04/15 10:25:53;;;;;;;25.15;14.70;;;9.40;99.90;;;;;;5076673;28;20127;-74
2023/04/15 10:28:19;;;;;;;26.80;15.32;;;9.40;99.90;;;;;;5078241;28;20053;-72
2023/04/15 10:30:46;;;;;;;30.55;15.77;;;9.40;99.90;;;;;;5077979;28;20029;-72
2023/04/15 10:33:13;;;;;;;30.42;15.35;;;9.30;99.90;;;;;;5077159;28;20024;-74
2023/04/15 10:35:39;;;;;;;26.23;14.80;;;9.30;99.90;;;;;;5076607;28;20024;-75
2023/04/15 10:38:38;;;;;;;26.77;15.52;;;9.20;99.90;;;;;;5077136;28;20080;-77
2023/04/15 10:41:28;;;;;;;29.75;16.25;;;9.20;99.90;;;;;;5073040;28;20036;-74
2023/04/15 10:44:04;;;;;;;30.55;15.90;;;9.20;99.90;;;;;;5075219;28;20052;-74
2023/04/15 10:46:40;;;;;;;28.50;16.25;;;9.20;99.90;;;;;;5076143;28;20036;-75
2023/04/15 10:49:16;;;;;;;29.02;16.05;;;9.20;99.90;;;;;;5077195;28;20036;-74
2023/04/15 10:51:55;;;;;;;31.33;17.83;;;9.20;99.90;;;;;;5075413;28;20385;-75
2023/04/15 10:54:24;;;;;;;33.30;17.63;;;9.20;99.90;;;;;;5075690;28;20587;-74
2023/04/15 10:56:51;;;;;;;37.22;21.73;;;9.30;99.90;;;;;;5067162;28;20501;-72
2023/04/15 10:59:17;;;;;;;41.80;20.30;;;9.30;99.90;;;;;;5062251;28;20481;-72
2023/04/15 11:01:53;;;;;;;36.80;18.33;;;9.30;99.90;;;;;;5062108;28;20033;-74
2023/04/15 11:04:56;;;;;;;36.80;18.75;;;9.30;99.90;;;;;;5063307;28;20084;-74
2023/04/15 11:07:47;;;;;;;54.53;22.00;;;9.30;99.90;;;;;;5062260;28;20718;-72
2023/04/15 11:10:12;;;;;;;46.28;21.02;;;9.30;99.90;;;;;;5062878;28;20112;-73
2023/04/15 11:12:39;;;;;;;48.45;22.15;;;9.30;99.90;;;;;;5063778;28;20021;-72
2023/04/15 11:15:28;;;;;;;47.03;22.73;;;9.30;99.90;;;;;;5063868;28;20017;-73
2023/04/15 11:18:07;;;;;;;51.65;22.85;;;9.40;99.90;;;;;;5063365;28;20467;-73
2023/04/15 11:20:33;;;;;;;52.30;24.60;;;9.40;99.90;;;;;;5063924;28;20017;-75
2023/04/15 11:22:59;;;;;;;58.92;25.83;;;9.50;99.90;;;;;;5061713;28;20025;-74
2023/04/15 11:25:26;;;;;;;59.13;25.83;;;9.50;99.90;;;;;;5061418;28;20044;-73
2023/04/15 11:27:53;;;;;;;58.20;26.08;;;9.60;99.90;;;;;;5061366;28;20056;-75
2023/04/15 11:30:21;;;;;;;58.60;26.33;;;9.70;99.90;;;;;;5063307;28;20079;-73
2023/04/15 11:32:51;;;;;;;65.45;27.98;;;9.70;99.90;;;;;;5063155;28;20044;-70
2023/04/15 11:35:17;;;;;;;67.15;28.52;;;9.60;99.90;;;;;;5063285;28;20056;-74
2023/04/15 11:37:44;;;;;;;71.15;29.52;;;9.60;99.90;;;;;;5062067;28;20047;-75
2023/04/15 11:40:10;;;;;;;68.30;29.88;;;9.60;99.90;;;;;;5063554;28;20729;-75
2023/04/15 11:42:36;;;;;;;69.80;30.98;;;9.60;99.90;;;;;;5062863;28;20028;-74
2023/04/15 11:45:12;;;;;;;74.53;31.58;;;9.60;99.90;;;;;;5061798;28;20049;-75
2023/04/15 11:47:38;;;;;;;68.97;31.42;;;9.70;99.90;;;;;;5060777;28;20041;-74
2023/04/15 11:50:34;;;;;;;83.13;33.88;;;9.60;99.90;;;;;;5062221;28;20021;-74
2023/04/15 11:53:03;;;;;;;86.90;33.78;;;9.60;99.90;;;;;;5058281;28;20033;-73
2023/04/15 11:55:30;;;;;;;86.93;35.75;;;9.70;99.90;;;;;;5062558;28;20039;-74
2023/04/15 11:58:22;;;;;;;83.68;35.28;;;9.70;99.90;;;;;;5061468;28;20039;-74
2023/04/15 12:00:59;;;;;;;87.07;35.50;;;9.80;99.90;;;;;;5062738;28;20025;-74
2023/04/15 12:03:26;;;;;;;82.65;37.08;;;9.80;99.90;;;;;;5062983;28;20055;-75
2023/04/15 12:06:12;;;;;;;91.85;35.95;;;9.80;99.90;;;;;;5060524;28;20124;-72
2023/04/15 12:08:47;;;;;;;76.50;35.67;;;9.80;99.90;;;;;;5061373;28;20021;-75
2023/04/15 12:11:14;;;;;;;87.28;37.72;;;9.90;99.90;;;;;;5059949;28;20474;-74
2023/04/15 12:13:44;;;;;;;87.32;37.58;;;9.90;99.90;;;;;;5062523;28;20052;-74
2023/04/15 12:16:10;;;;;;;90.15;39.63;;;9.90;99.90;;;;;;5060839;28;20017;-74
2023/04/15 12:18:38;;;;;;;96.57;41.25;;;9.90;99.90;;;;;;5062750;28;20029;-74
2023/04/15 12:21:13;;;;;;;104.18;44.50;;;9.90;99.90;;;;;;5062087;28;20084;-73
2023/04/15 12:24:00;;;;;;;96.50;41.20;;;9.90;99.90;;;;;;5061869;28;20033;-73
2023/04/15 12:26:47;;;;;;;91.90;40.35;;;10.00;99.90;;;;;;5059908;28;20052;-71
2023/04/15 12:29:15;;;;;;;89.97;39.20;;;10.00;99.90;;;;;;5062043;28;20021;-73
2023/04/15 12:31:52;;;;;;;99.13;41.00;;;10.00;99.90;;;;;;5062285;28;20028;-74
2023/04/15 12:34:25;;;;;;;102.95;44.72;;;10.10;99.90;;;;;;5060843;28;20025;-74
2023/04/15 12:36:51;;;;;;;97.97;40.55;;;10.20;99.90;;;;;;5062057;28;20021;-72